createdAt,value
2023-05-14T00:00:19.200Z,11.60
2023-05-14T00:02:45.961Z,11.56
2023-05-14T00:05:12.611Z,11.53
2023-05-14T00:07:39.031Z,11.51
2023-05-14T00:10:06.061Z,11.48
2023-05-14T00:12:32.489Z,11.46
2023-05-14T00:14:58.874Z,11.43
2023-05-14T00:17:25.312Z,11.38
2023-05-14T00:19:51.713Z,11.35
2023-05-14T00:22:18.160Z,11.33
2023-05-14T00:24:44.530Z,11.29
2023-05-14T00:27:11.470Z,11.27
2023-05-14T00:29:37.896Z,11.25
2023-05-14T00:32:04.651Z,11.25
2023-05-14T00:34:31.066Z,11.22
2023-05-14T00:36:57.428Z,11.19
2023-05-14T00:39:23.856Z,11.15
2023-05-14T00:41:50.218Z,11.13
2023-05-14T00:44:16.691Z,11.10
2023-05-14T00:46:43.776Z,11.07
2023-05-14T00:49:10.696Z,11.06
2023-05-14T00:51:37.949Z,11.01
2023-05-14T00:54:04.727Z,11.00
2023-05-14T00:56:31.543Z,10.96
2023-05-14T00:58:58.299Z,10.93
2023-05-14T01:01:24.779Z,10.92
2023-05-14T01:03:53.459Z,10.89
2023-05-14T01:06:28.953Z,10.86
2023-05-14T01:09:24.233Z,10.81
2023-05-14T01:12:10.490Z,10.77
2023-05-14T01:14:54.256Z,10.71
2023-05-14T01:17:22.946Z,10.67
2023-05-14T01:19:51.947Z,10.67
2023-05-14T01:22:18.372Z,10.64
2023-05-14T01:24:44.772Z,10.60
2023-05-14T01:27:21.809Z,10.56
2023-05-14T01:30:21.934Z,10.55
2023-05-14T01:32:54.838Z,10.52
2023-05-14T01:35:25.666Z,10.51
2023-05-14T01:37:55.274Z,10.47
2023-05-14T01:40:22.861Z,10.45
2023-05-14T01:42:51.922Z,10.41
2023-05-14T01:45:21.018Z,10.39
2023-05-14T01:47:47.522Z,10.36
2023-05-14T01:50:14.133Z,10.37
2023-05-14T01:52:40.622Z,10.35
2023-05-14T01:55:07.568Z,10.36
2023-05-14T01:57:34.027Z,10.32
2023-05-14T02:00:00.439Z,10.30
2023-05-14T02:02:26.843Z,10.24
2023-05-14T02:04:54.956Z,10.27
2023-05-14T02:07:21.390Z,10.25
2023-05-14T02:09:48.110Z,10.23
2023-05-14T02:12:14.545Z,10.22
2023-05-14T02:14:40.970Z,10.18
2023-05-14T02:17:07.439Z,10.15
2023-05-14T02:19:33.828Z,10.15
2023-05-14T02:22:01.188Z,10.13
2023-05-14T02:24:27.653Z,10.09
2023-05-14T02:26:54.168Z,10.07
2023-05-14T02:29:20.566Z,10.05
2023-05-14T02:31:46.942Z,10.02
2023-05-14T02:34:13.371Z,10.01
2023-05-14T02:36:39.987Z,10.01
2023-05-14T02:39:06.662Z,10.01
2023-05-14T02:41:33.103Z,10.01
2023-05-14T02:43:59.655Z,10.00
2023-05-14T02:46:26.184Z,9.99
2023-05-14T02:48:52.647Z,9.96
2023-05-14T02:51:20.825Z,9.97
2023-05-14T02:53:47.250Z,9.95
2023-05-14T02:56:13.826Z,9.93
2023-05-14T02:58:40.206Z,9.93
2023-05-14T03:01:06.974Z,9.88
2023-05-14T03:03:34.199Z,9.87
2023-05-14T03:06:01.048Z,9.85
2023-05-14T03:08:27.424Z,9.82
2023-05-14T03:10:53.846Z,9.79
2023-05-14T03:13:20.745Z,9.79
2023-05-14T03:15:47.561Z,9.78
2023-05-14T03:18:15.070Z,9.78
2023-05-14T03:20:41.693Z,9.75
2023-05-14T03:23:08.153Z,9.76
2023-05-14T03:25:34.561Z,9.74
2023-05-14T03:28:00.995Z,9.76
2023-05-14T03:30:27.440Z,9.77
2023-05-14T03:32:54.195Z,9.75
2023-05-14T03:35:20.634Z,9.74
2023-05-14T03:37:47.055Z,9.73
2023-05-14T03:40:13.419Z,9.74
2023-05-14T03:42:39.826Z,9.75
2023-05-14T03:45:07.026Z,9.77
2023-05-14T03:47:33.466Z,9.78
2023-05-14T03:49:59.897Z,9.79
2023-05-14T03:52:26.299Z,9.81
2023-05-14T03:54:52.779Z,9.82
2023-05-14T03:57:19.215Z,9.84
2023-05-14T03:59:45.603Z,9.85
2023-05-14T04:02:12.054Z,9.85
2023-05-14T04:04:38.528Z,9.86
2023-05-14T04:07:05.136Z,9.87
2023-05-14T04:09:31.542Z,9.86
2023-05-14T04:11:57.916Z,9.87
2023-05-14T04:14:24.778Z,9.88
2023-05-14T04:16:51.167Z,9.92
2023-05-14T04:19:17.673Z,9.95
2023-05-14T04:21:44.554Z,9.97
2023-05-14T04:24:10.960Z,10.00
2023-05-14T04:26:37.407Z,10.02
2023-05-14T04:29:03.878Z,10.11
2023-05-14T04:31:31.902Z,10.38
2023-05-14T04:33:58.588Z,10.58
2023-05-14T04:36:25.234Z,10.64
2023-05-14T04:38:51.704Z,10.73
2023-05-14T04:41:18.132Z,10.89
2023-05-14T04:43:44.530Z,11.06
2023-05-14T04:46:11.498Z,11.08
2023-05-14T04:48:37.980Z,11.71
2023-05-14T04:51:06.855Z,12.52
2023-05-14T04:53:33.703Z,13.40
2023-05-14T04:56:00.113Z,14.07
2023-05-14T04:58:28.786Z,14.31
2023-05-14T05:00:55.209Z,14.86
2023-05-14T05:03:21.784Z,15.53
2023-05-14T05:05:48.279Z,15.95
2023-05-14T05:08:14.805Z,14.99
2023-05-14T05:10:41.421Z,14.05
2023-05-14T05:13:07.883Z,14.29
2023-05-14T05:15:34.352Z,14.37
2023-05-14T05:18:00.877Z,13.99
2023-05-14T05:20:28.267Z,14.53
2023-05-14T05:22:54.829Z,14.87
2023-05-14T05:25:21.445Z,14.62
2023-05-14T05:27:47.941Z,15.09
2023-05-14T05:30:14.419Z,16.04
2023-05-14T05:32:41.034Z,16.12
2023-05-14T05:35:07.779Z,15.76
2023-05-14T05:37:34.254Z,14.58
2023-05-14T05:40:00.773Z,13.84
2023-05-14T05:42:27.157Z,13.29
2023-05-14T05:44:53.581Z,12.95
2023-05-14T05:47:19.997Z,12.69
2023-05-14T05:49:46.385Z,12.51
2023-05-14T05:52:12.914Z,12.54
2023-05-14T05:54:39.865Z,12.38
2023-05-14T05:57:06.277Z,12.42
2023-05-14T05:59:32.700Z,12.31
2023-05-14T06:01:59.232Z,12.30
2023-05-14T06:04:25.756Z,12.35
2023-05-14T06:06:52.161Z,12.54
2023-05-14T06:09:18.623Z,12.70
2023-05-14T06:11:45.013Z,12.90
2023-05-14T06:14:11.457Z,12.96
2023-05-14T06:16:38.007Z,13.09
2023-05-14T06:19:04.520Z,13.27
2023-05-14T06:21:30.942Z,13.96
2023-05-14T06:23:57.378Z,13.76
2023-05-14T06:26:23.767Z,13.50
2023-05-14T06:28:50.231Z,13.36
2023-05-14T06:31:16.672Z,13.45
2023-05-14T06:33:43.174Z,13.70
2023-05-14T06:36:09.884Z,13.86
2023-05-14T06:38:36.446Z,13.72
2023-05-14T06:41:03.340Z,13.88
2023-05-14T06:43:29.716Z,15.54
2023-05-14T06:45:56.097Z,15.27
2023-05-14T06:48:22.629Z,15.43
2023-05-14T06:50:49.773Z,16.18
2023-05-14T06:53:16.475Z,17.12
2023-05-14T06:55:42.919Z,18.12
2023-05-14T06:58:09.616Z,18.68
2023-05-14T07:00:36.039Z,19.30
2023-05-14T07:03:02.577Z,19.03
2023-05-14T07:05:29.135Z,19.38
2023-05-14T07:07:55.537Z,18.93
2023-05-14T07:10:22.479Z,17.78
2023-05-14T07:12:49.308Z,17.77
2023-05-14T07:15:15.914Z,19.15
2023-05-14T07:17:42.357Z,19.61
2023-05-14T07:20:09.393Z,19.60
2023-05-14T07:22:35.846Z,19.27
2023-05-14T07:25:02.875Z,19.53
2023-05-14T07:27:29.355Z,18.58
2023-05-14T07:29:55.745Z,18.34
2023-05-14T07:32:22.229Z,17.93
2023-05-14T07:34:48.803Z,18.44
2023-05-14T07:37:15.284Z,19.93
2023-05-14T07:39:41.818Z,19.98
2023-05-14T07:42:08.222Z,19.94
2023-05-14T07:44:34.635Z,19.41
2023-05-14T07:47:01.108Z,19.36
2023-05-14T07:49:27.566Z,18.86
2023-05-14T07:51:53.935Z,19.10
2023-05-14T07:54:20.330Z,19.63
2023-05-14T07:56:46.747Z,19.71
2023-05-14T07:59:13.216Z,19.66
2023-05-14T08:01:39.681Z,18.89
2023-05-14T08:04:06.379Z,18.82
2023-05-14T08:06:33.155Z,19.03
2023-05-14T08:08:59.646Z,19.03
2023-05-14T08:11:26.202Z,18.48
2023-05-14T08:13:52.790Z,17.89
2023-05-14T08:16:19.307Z,17.57
2023-05-14T08:18:45.748Z,17.67
2023-05-14T08:21:12.149Z,18.20
2023-05-14T08:23:38.701Z,18.16
2023-05-14T08:26:05.197Z,18.54
2023-05-14T08:28:31.705Z,19.18
2023-05-14T08:30:58.100Z,19.62
2023-05-14T08:33:24.576Z,19.83
2023-05-14T08:35:54.581Z,20.05
2023-05-14T08:38:21.034Z,20.26
2023-05-14T08:41:00.330Z,20.16
2023-05-14T08:43:36.229Z,20.05
2023-05-14T08:46:06.486Z,20.35
2023-05-14T08:48:37.721Z,20.32
2023-05-14T08:51:04.551Z,20.46
2023-05-14T08:53:31.337Z,20.64
2023-05-14T08:56:01.093Z,20.73
2023-05-14T08:58:28.706Z,20.75
2023-05-14T09:00:55.970Z,20.71
2023-05-14T09:03:23.222Z,20.78
2023-05-14T09:05:51.910Z,20.58
2023-05-14T09:08:19.329Z,20.42
2023-05-14T09:10:46.054Z,20.41
2023-05-14T09:13:12.726Z,20.43
2023-05-14T09:15:41.304Z,20.72
2023-05-14T09:18:07.983Z,20.89
2023-05-14T09:20:34.610Z,20.90
2023-05-14T09:23:01.684Z,20.74
2023-05-14T09:25:31.916Z,20.62
2023-05-14T09:27:59.279Z,19.80
2023-05-14T09:30:27.266Z,19.75
2023-05-14T09:32:54.808Z,20.19
2023-05-14T09:35:24.217Z,20.50
2023-05-14T09:37:53.130Z,20.35
2023-05-14T09:40:21.737Z,19.59
2023-05-14T09:42:49.206Z,19.37
2023-05-14T09:45:16.797Z,19.64
2023-05-14T09:47:44.921Z,19.75
2023-05-14T09:50:11.653Z,20.18
2023-05-14T09:52:38.800Z,20.03
2023-05-14T09:55:05.694Z,19.98
2023-05-14T09:57:32.205Z,19.94
2023-05-14T09:59:58.677Z,19.58
2023-05-14T10:02:37.630Z,19.45
2023-05-14T10:05:06.407Z,19.38
2023-05-14T10:07:44.520Z,19.73
2023-05-14T10:10:15.731Z,19.53
2023-05-14T10:12:46.274Z,19.36
2023-05-14T10:15:20.798Z,19.12
2023-05-14T10:17:51.276Z,19.65
2023-05-14T10:20:18.129Z,20.05
2023-05-14T10:22:45.148Z,20.21
2023-05-14T10:25:12.024Z,20.43
2023-05-14T10:27:39.457Z,20.64
2023-05-14T10:30:12.278Z,20.73
2023-05-14T10:32:41.712Z,20.92
2023-05-14T10:35:20.424Z,20.68
2023-05-14T10:37:47.140Z,20.70
2023-05-14T10:40:14.112Z,21.04
2023-05-14T10:42:43.246Z,21.31
2023-05-14T10:45:14.372Z,21.72
2023-05-14T10:47:46.961Z,21.84
2023-05-14T10:50:15.250Z,21.05
2023-05-14T10:52:46.132Z,20.69
2023-05-14T10:55:14.802Z,20.49
2023-05-14T10:57:44.097Z,20.73
2023-05-14T11:00:11.312Z,20.77
2023-05-14T11:02:40.605Z,20.91
2023-05-14T11:05:13.960Z,21.42
2023-05-14T11:07:42.682Z,21.39
2023-05-14T11:10:29.797Z,20.93
2023-05-14T11:12:57.452Z,21.43
2023-05-14T11:15:26.541Z,21.73
2023-05-14T11:17:53.826Z,21.28
2023-05-14T11:20:21.111Z,21.19
2023-05-14T11:22:49.373Z,21.86
2023-05-14T11:25:15.957Z,22.11
2023-05-14T11:27:46.896Z,21.90
2023-05-14T11:30:18.239Z,21.49
2023-05-14T11:32:46.706Z,22.15
2023-05-14T11:35:14.205Z,21.91
2023-05-14T11:37:41.212Z,22.02
2023-05-14T11:40:26.043Z,22.08
2023-05-14T11:42:53.468Z,21.71
2023-05-14T11:45:29.946Z,22.09
2023-05-14T11:47:56.400Z,22.29
2023-05-14T11:50:23.365Z,22.49
2023-05-14T11:52:50.963Z,22.46
2023-05-14T11:55:17.908Z,22.50
2023-05-14T11:57:44.611Z,22.45
2023-05-14T12:00:20.935Z,22.69
2023-05-14T12:02:48.880Z,22.86
2023-05-14T12:05:15.281Z,22.22
2023-05-14T12:07:45.721Z,22.31
2023-05-14T12:10:13.409Z,22.20
2023-05-14T12:12:39.961Z,22.65
2023-05-14T12:15:13.835Z,22.20
2023-05-14T12:17:40.823Z,22.28
2023-05-14T12:20:11.169Z,22.75
2023-05-14T12:22:38.303Z,23.16
2023-05-14T12:25:10.244Z,23.48
2023-05-14T12:27:37.471Z,23.52
2023-05-14T12:30:20.637Z,23.26
2023-05-14T12:32:51.474Z,22.94
2023-05-14T12:35:18.738Z,22.87
2023-05-14T12:37:45.239Z,22.97
2023-05-14T12:40:12.001Z,22.36
2023-05-14T12:42:38.393Z,22.53
2023-05-14T12:45:08.020Z,22.81
2023-05-14T12:47:34.959Z,22.75
2023-05-14T12:50:01.587Z,22.94
2023-05-14T12:52:37.575Z,23.25
2023-05-14T12:55:05.393Z,23.16
2023-05-14T12:57:32.231Z,22.82
2023-05-14T12:59:58.887Z,22.58
2023-05-14T13:02:25.526Z,22.50
2023-05-14T13:04:51.925Z,22.90
2023-05-14T13:07:18.568Z,23.08
2023-05-14T13:09:45.054Z,23.05
2023-05-14T13:12:11.472Z,23.04
2023-05-14T13:14:37.888Z,23.11
2023-05-14T13:17:05.226Z,22.74
2023-05-14T13:19:31.744Z,23.22
2023-05-14T13:21:58.138Z,23.63
2023-05-14T13:24:25.079Z,23.68
2023-05-14T13:26:51.477Z,23.50
2023-05-14T13:29:17.862Z,23.27
2023-05-14T13:31:44.303Z,23.46
2023-05-14T13:34:10.686Z,23.39
2023-05-14T13:36:39.578Z,23.08
2023-05-14T13:39:06.913Z,23.24
2023-05-14T13:41:37.765Z,23.72
2023-05-14T13:44:04.646Z,23.36
2023-05-14T13:46:33.864Z,23.38
2023-05-14T13:49:00.389Z,23.68
2023-05-14T13:51:26.741Z,24.01
2023-05-14T13:56:24.405Z,23.03
2023-05-14T13:58:50.843Z,23.34
2023-05-14T14:01:17.297Z,23.27
2023-05-14T14:03:43.684Z,23.08
2023-05-14T14:06:10.094Z,22.80
2023-05-14T14:08:36.462Z,22.66
2023-05-14T14:11:02.901Z,23.05
2023-05-14T14:13:29.535Z,22.99
2023-05-14T14:15:56.036Z,22.86
2023-05-14T14:18:22.456Z,22.91
2023-05-14T14:20:49.007Z,22.40
2023-05-14T14:23:15.383Z,22.82
2023-05-14T14:25:41.785Z,22.68
2023-05-14T14:28:08.149Z,22.32
2023-05-14T14:30:34.645Z,22.71
2023-05-14T14:33:01.252Z,22.98
2023-05-14T14:35:27.786Z,23.22
2023-05-14T14:37:55.625Z,23.00
2023-05-14T14:40:24.013Z,22.81
2023-05-14T14:42:50.654Z,22.94
2023-05-14T14:45:17.357Z,22.98
2023-05-14T14:47:46.595Z,22.83
2023-05-14T14:50:13.714Z,23.15
2023-05-14T14:52:40.946Z,22.97
2023-05-14T14:55:07.703Z,22.78
2023-05-14T14:57:34.106Z,22.88
2023-05-14T15:00:02.119Z,23.04
2023-05-14T15:02:29.204Z,23.26
2023-05-14T15:04:55.750Z,23.35
2023-05-14T15:07:22.630Z,23.63
2023-05-14T15:09:49.005Z,23.48
2023-05-14T15:12:16.963Z,23.23
2023-05-14T15:14:43.482Z,23.30
2023-05-14T15:17:10.338Z,23.20
2023-05-14T15:19:36.999Z,23.28
2023-05-14T15:22:03.968Z,23.24
2023-05-14T15:24:30.591Z,23.10
2023-05-14T15:26:56.970Z,23.09
2023-05-14T15:29:23.412Z,23.36
2023-05-14T15:31:49.928Z,23.36
2023-05-14T15:34:16.703Z,23.28
2023-05-14T15:36:43.072Z,23.08
2023-05-14T15:39:10.351Z,23.26
2023-05-14T15:41:37.000Z,22.95
2023-05-14T15:44:03.678Z,22.99
2023-05-14T15:46:30.837Z,22.73
2023-05-14T15:49:00.147Z,22.41
2023-05-14T15:51:26.649Z,22.53
2023-05-14T15:53:54.109Z,22.55
2023-05-14T15:56:22.281Z,22.28
2023-05-14T15:58:49.325Z,22.20
2023-05-14T16:01:15.793Z,21.90
2023-05-14T16:03:42.270Z,21.94
2023-05-14T16:06:08.830Z,22.07
2023-05-14T16:08:35.235Z,22.27
2023-05-14T16:11:01.666Z,22.12
2023-05-14T16:13:28.180Z,21.75
2023-05-14T16:15:54.973Z,21.66
2023-05-14T16:18:22.056Z,21.49
2023-05-14T16:20:48.614Z,21.44
2023-05-14T16:23:15.246Z,21.22
2023-05-14T16:25:41.712Z,21.14
2023-05-14T16:28:08.171Z,21.21
2023-05-14T16:30:34.580Z,21.37
2023-05-14T16:33:01.160Z,21.57
2023-05-14T16:35:27.579Z,21.62
2023-05-14T16:37:54.406Z,21.58
2023-05-14T16:40:23.387Z,21.55
2023-05-14T16:42:49.975Z,21.48
2023-05-14T16:45:16.435Z,21.50
2023-05-14T16:47:43.120Z,21.33
2023-05-14T16:50:09.725Z,21.16
2023-05-14T16:52:36.106Z,21.07
2023-05-14T16:55:02.502Z,21.08
2023-05-14T16:57:28.987Z,20.97
2023-05-14T16:59:55.359Z,20.87
2023-05-14T17:02:21.750Z,20.73
2023-05-14T17:04:48.227Z,20.53
2023-05-14T17:07:14.882Z,20.08
2023-05-14T17:09:41.609Z,19.80
2023-05-14T17:12:09.461Z,19.63
2023-05-14T17:14:35.993Z,19.49
2023-05-14T17:17:02.462Z,19.26
2023-05-14T17:19:29.092Z,19.04
2023-05-14T17:21:55.636Z,18.97
2023-05-14T17:24:22.014Z,18.88
2023-05-14T17:26:48.701Z,18.75
2023-05-14T17:29:15.090Z,18.64
2023-05-14T17:31:41.521Z,18.82
2023-05-14T17:34:07.858Z,18.89
2023-05-14T17:36:34.291Z,18.79
2023-05-14T17:39:00.680Z,18.77
2023-05-14T17:41:27.341Z,18.67
2023-05-14T17:43:53.729Z,18.56
2023-05-14T17:46:20.505Z,18.42
2023-05-14T17:48:46.933Z,18.31
2023-05-14T17:51:13.355Z,18.31
2023-05-14T17:53:39.770Z,18.23
2023-05-14T17:56:06.259Z,18.13
2023-05-14T17:58:32.774Z,18.00
2023-05-14T18:00:59.652Z,17.95
2023-05-14T18:03:26.166Z,17.93
2023-05-14T18:05:52.837Z,17.80
2023-05-14T18:08:19.258Z,17.80
2023-05-14T18:10:45.642Z,17.69
2023-05-14T18:13:12.299Z,17.42
2023-05-14T18:15:39.065Z,17.33
2023-05-14T18:18:05.792Z,17.15
2023-05-14T18:20:34.080Z,16.95
2023-05-14T18:23:02.274Z,16.75
2023-05-14T18:25:29.061Z,16.75
2023-05-14T18:27:55.551Z,16.62
2023-05-14T18:30:22.359Z,16.34
2023-05-14T18:32:48.790Z,16.29
2023-05-14T18:35:15.206Z,16.26
2023-05-14T18:37:41.682Z,16.23
2023-05-14T18:40:08.668Z,16.24
2023-05-14T18:42:35.338Z,16.15
2023-05-14T18:45:02.211Z,16.08
2023-05-14T18:47:28.726Z,15.99
2023-05-14T18:49:57.647Z,15.98
2023-05-14T18:52:24.511Z,15.81
2023-05-14T18:54:50.979Z,15.67
2023-05-14T18:57:17.498Z,15.57
2023-05-14T18:59:43.881Z,15.45
2023-05-14T19:02:10.314Z,15.49
2023-05-14T19:04:50.642Z,15.30
2023-05-14T19:07:18.064Z,15.16
2023-05-14T19:09:44.515Z,14.90
2023-05-14T19:12:10.885Z,14.74
2023-05-14T19:14:37.295Z,14.68
2023-05-14T19:17:04.002Z,14.58
2023-05-14T19:19:30.722Z,14.52
2023-05-14T19:21:57.135Z,14.39
2023-05-14T19:24:23.512Z,14.30
2023-05-14T19:26:50.060Z,14.18
2023-05-14T19:29:16.574Z,14.08
2023-05-14T19:31:43.010Z,14.07
2023-05-14T19:34:09.515Z,14.03
2023-05-14T19:36:35.903Z,13.96
2023-05-14T19:39:02.345Z,13.99
2023-05-14T19:41:28.935Z,13.95
2023-05-14T19:43:55.433Z,13.96
2023-05-14T19:46:22.734Z,13.94
2023-05-14T19:48:49.173Z,13.94
2023-05-14T19:51:15.593Z,13.88
2023-05-14T19:53:43.367Z,13.84
2023-05-14T19:56:09.762Z,13.79
2023-05-14T19:58:36.636Z,13.72
2023-05-14T20:01:03.414Z,13.65
2023-05-14T20:03:30.146Z,13.63
2023-05-14T20:05:56.661Z,13.61
2023-05-14T20:08:23.085Z,13.58
2023-05-14T20:10:49.552Z,13.54
2023-05-14T20:13:15.983Z,13.49
2023-05-14T20:15:43.081Z,13.43
2023-05-14T20:18:09.686Z,13.38
2023-05-14T20:20:36.566Z,13.35
2023-05-14T20:23:03.515Z,13.32
2023-05-14T20:25:30.154Z,13.26
2023-05-14T20:27:56.991Z,13.22
2023-05-14T20:30:23.488Z,13.19
2023-05-14T20:32:50.152Z,13.12
2023-05-14T20:35:16.652Z,13.08
2023-05-14T20:37:43.146Z,13.06
2023-05-14T20:40:12.252Z,13.03
2023-05-14T20:42:38.988Z,13.01
2023-05-14T20:45:06.610Z,12.96
2023-05-14T20:47:34.237Z,12.90
2023-05-14T20:50:01.221Z,12.83
2023-05-14T20:52:27.606Z,12.74
2023-05-14T20:54:54.005Z,12.74
2023-05-14T20:57:20.537Z,12.71
2023-05-14T20:59:47.496Z,12.66
2023-05-14T21:02:14.222Z,12.62
2023-05-14T21:04:41.031Z,12.59
2023-05-14T21:07:07.700Z,12.56
2023-05-14T21:09:34.147Z,12.53
2023-05-14T21:12:00.532Z,12.47
2023-05-14T21:14:26.936Z,12.39
2023-05-14T21:16:53.418Z,12.39
2023-05-14T21:19:19.954Z,12.35
2023-05-14T21:21:47.323Z,12.32
2023-05-14T21:24:14.010Z,12.30
2023-05-14T21:26:41.423Z,12.31
2023-05-14T21:29:07.943Z,12.28
2023-05-14T21:31:34.580Z,12.24
2023-05-14T21:34:01.070Z,12.25
2023-05-14T21:36:27.625Z,12.26
2023-05-14T21:38:54.011Z,12.21
2023-05-14T21:41:21.173Z,12.16
2023-05-14T21:43:47.672Z,12.12
2023-05-14T21:46:14.175Z,12.09
2023-05-14T21:48:40.807Z,12.04
2023-05-14T21:51:07.746Z,12.01
2023-05-14T21:53:34.738Z,11.99
2023-05-14T21:56:01.146Z,11.96
2023-05-14T21:58:27.699Z,11.97
2023-05-14T22:00:54.424Z,11.95
2023-05-14T22:03:21.028Z,11.94
2023-05-14T22:05:47.716Z,11.87
2023-05-14T22:08:14.211Z,11.83
2023-05-14T22:10:40.817Z,11.80
2023-05-14T22:13:07.291Z,11.76
2023-05-14T22:15:34.323Z,11.73
2023-05-14T22:18:00.960Z,11.70
2023-05-14T22:20:27.375Z,11.67
2023-05-14T22:22:54.118Z,11.66
2023-05-14T22:25:20.543Z,11.65
2023-05-14T22:27:47.084Z,11.65
2023-05-14T22:30:13.571Z,11.63
2023-05-14T22:32:40.093Z,11.59
2023-05-14T22:35:06.694Z,11.51
2023-05-14T22:37:33.345Z,11.50
2023-05-14T22:40:02.143Z,11.48
2023-05-14T22:42:28.489Z,11.45
2023-05-14T22:44:54.911Z,11.45
2023-05-14T22:47:21.409Z,11.44
2023-05-14T22:49:47.972Z,11.44
2023-05-14T22:52:14.420Z,11.43
2023-05-14T22:54:40.887Z,11.42
2023-05-14T22:57:07.361Z,11.41
2023-05-14T22:59:34.113Z,11.41
2023-05-14T23:02:00.668Z,11.40
2023-05-14T23:04:27.165Z,11.38
2023-05-14T23:06:53.680Z,11.35
2023-05-14T23:09:20.099Z,11.30
2023-05-14T23:11:46.622Z,11.31
2023-05-14T23:14:13.020Z,11.32
2023-05-14T23:16:39.645Z,11.33
2023-05-14T23:19:06.279Z,11.32
2023-05-14T23:21:33.000Z,11.32
2023-05-14T23:23:59.421Z,11.33
2023-05-14T23:26:25.938Z,11.31
2023-05-14T23:28:52.459Z,11.31
2023-05-14T23:31:18.915Z,11.31
2023-05-14T23:33:46.242Z,11.31
2023-05-14T23:36:12.754Z,11.30
2023-05-14T23:38:40.159Z,11.28
2023-05-14T23:41:06.604Z,11.30
2023-05-14T23:43:33.720Z,11.27
2023-05-14T23:46:00.645Z,11.24
2023-05-14T23:48:27.260Z,11.25
2023-05-14T23:50:53.710Z,11.25
2023-05-14T23:53:20.340Z,11.26
2023-05-14T23:55:47.118Z,11.25
2023-05-14T23:58:13.593Z,11.22
